CSL weather

Cabo San Lucas International Airport
Cabo San Lucas, Baja California Sur, Mexico

Public forecast

Using degrees Celsius for public forecast. Weather courtesy of forecast.io.

METAR (pilot weather report)

Retrieved 2019/04/22 03:45 UTC (57 minutes ago):

MMSL 220345Z 00000KT 7SM SKC 24/14 A2999 RMK AC CI

TAF (pilot weather forecast)

Forecast is more than 6 hours old.

Retrieved 2019/04/21 18:38 UTC (10 hours ago):

TAF MMSL 211638Z 2118/2218 30015KT P6SM BKN250 FM220300 22010KT P6SM BKN250